createdAt,value
2023-04-30T00:00:00.742Z,9.4
2023-04-30T00:01:00.628Z,9.4
2023-04-30T00:02:00.749Z,9.4
2023-04-30T00:03:00.815Z,9.4
2023-04-30T00:04:00.626Z,9.4
2023-04-30T00:05:00.735Z,9.4
2023-04-30T00:06:00.657Z,9.4
2023-04-30T00:07:00.610Z,9.4
2023-04-30T00:08:00.672Z,9.4
2023-04-30T00:09:00.635Z,9.4
2023-04-30T00:10:00.816Z,9.4
2023-04-30T00:11:00.628Z,9.4
2023-04-30T00:12:00.655Z,9.4
2023-04-30T00:13:00.628Z,9.4
2023-04-30T00:14:00.705Z,9.4
2023-04-30T00:15:00.618Z,9.4
2023-04-30T00:16:00.759Z,9.4
2023-04-30T00:17:00.735Z,9.4
2023-04-30T00:18:01.327Z,9.4
2023-04-30T00:19:00.655Z,9.3
2023-04-30T00:20:00.651Z,9.3
2023-04-30T00:21:00.617Z,9.3
2023-04-30T00:22:00.690Z,9.4
2023-04-30T00:23:00.653Z,9.3
2023-04-30T00:24:00.682Z,9.4
2023-04-30T00:25:00.727Z,9.3
2023-04-30T00:26:00.694Z,9.3
2023-04-30T00:27:00.627Z,9.3
2023-04-30T00:28:00.621Z,9.3
2023-04-30T00:29:00.635Z,9.3
2023-04-30T00:30:00.619Z,9.3
2023-04-30T00:31:00.742Z,9.3
2023-04-30T00:32:00.618Z,9.3
2023-04-30T00:33:00.700Z,9.3
2023-04-30T00:34:00.624Z,9.3
2023-04-30T00:35:00.707Z,9.3
2023-04-30T00:36:00.699Z,9.3
2023-04-30T00:37:00.654Z,9.3
2023-04-30T00:38:00.633Z,9.3
2023-04-30T00:39:00.656Z,9.2
2023-04-30T00:40:00.615Z,9.3
2023-04-30T00:41:01.005Z,9.2
2023-04-30T00:42:00.618Z,9.2
2023-04-30T00:43:00.790Z,9.2
2023-04-30T00:44:00.753Z,9.2
2023-04-30T00:45:00.614Z,9.2
2023-04-30T00:46:00.661Z,9.2
2023-04-30T00:47:00.651Z,9.2
2023-04-30T00:48:00.715Z,9.2
2023-04-30T00:49:00.742Z,9.2
2023-04-30T00:50:00.606Z,9.2
2023-04-30T00:51:02.972Z,9.2
2023-04-30T00:52:00.659Z,9.2
2023-04-30T00:53:00.848Z,9.2
2023-04-30T00:54:01.788Z,9.2
2023-04-30T00:55:00.959Z,9.2
2023-04-30T00:56:01.230Z,9.2
2023-04-30T00:57:01.921Z,9.2
2023-04-30T00:58:00.705Z,9.2
2023-04-30T00:59:00.714Z,9.2
2023-04-30T01:00:01.455Z,9.2
2023-04-30T01:01:02.716Z,9.2
2023-04-30T01:02:02.084Z,9.2
2023-04-30T01:03:01.435Z,9.2
2023-04-30T01:04:00.672Z,9.2
2023-04-30T01:05:01.993Z,9.2
2023-04-30T01:06:01.429Z,9.2
2023-04-30T01:07:00.798Z,9.2
2023-04-30T01:08:00.627Z,9.2
2023-04-30T01:09:00.786Z,9.2
2023-04-30T01:10:01.356Z,9.2
2023-04-30T01:11:16.958Z,9.1
2023-04-30T01:12:13.843Z,9.2
2023-04-30T01:13:06.953Z,9.1
2023-04-30T01:14:08.352Z,9.1
2023-04-30T01:15:10.552Z,9.1
2023-04-30T01:16:20.651Z,9.1
2023-04-30T01:17:16.554Z,9.1
2023-04-30T01:18:06.462Z,9.1
2023-04-30T01:19:14.754Z,9.1
2023-04-30T01:20:01.014Z,9.1
2023-04-30T01:21:04.427Z,9.1
2023-04-30T01:22:03.039Z,9.1
2023-04-30T01:23:13.232Z,9.1
2023-04-30T01:24:20.529Z,9.1
2023-04-30T01:25:11.576Z,9.1
2023-04-30T01:26:04.880Z,9.1
2023-04-30T01:27:20.551Z,9.1
2023-04-30T01:28:09.548Z,9.1
2023-04-30T01:29:03.114Z,9.1
2023-04-30T01:30:01.517Z,9.1
2023-04-30T01:31:00.717Z,9.1
2023-04-30T01:32:01.067Z,9.0
2023-04-30T01:33:01.891Z,9.0
2023-04-30T01:34:00.601Z,9.0
2023-04-30T01:35:02.959Z,9.0
2023-04-30T01:36:17.963Z,9.0
2023-04-30T01:37:13.794Z,9.0
2023-04-30T01:38:13.839Z,9.0
2023-04-30T01:39:15.914Z,8.9
2023-04-30T01:40:20.521Z,8.9
2023-04-30T01:41:09.992Z,8.9
2023-04-30T01:42:10.610Z,8.9
2023-04-30T01:43:08.786Z,8.9
2023-04-30T01:44:11.303Z,8.9
2023-04-30T01:45:20.543Z,8.9
2023-04-30T01:46:11.634Z,8.9
2023-04-30T01:47:06.489Z,8.8
2023-04-30T01:48:11.794Z,8.8
2023-04-30T01:49:10.568Z,8.8
2023-04-30T01:50:20.561Z,8.8
2023-04-30T01:51:11.598Z,8.8
2023-04-30T01:52:19.601Z,8.8
2023-04-30T01:53:04.385Z,8.7
2023-04-30T01:54:07.354Z,8.7
2023-04-30T01:55:07.350Z,8.7
2023-04-30T01:56:03.353Z,8.6
2023-04-30T01:57:02.953Z,8.6
2023-04-30T01:58:05.705Z,8.6
2023-04-30T01:59:02.495Z,8.6
2023-04-30T02:00:02.622Z,8.5
2023-04-30T02:01:00.610Z,8.5
2023-04-30T02:02:01.359Z,8.5
2023-04-30T02:03:00.883Z,8.5
2023-04-30T02:04:00.752Z,8.4
2023-04-30T02:05:00.639Z,8.4
2023-04-30T02:06:00.663Z,8.4
2023-04-30T02:07:00.643Z,8.4
2023-04-30T02:08:00.668Z,8.3
2023-04-30T02:09:00.655Z,8.3
2023-04-30T02:10:00.625Z,8.3
2023-04-30T02:11:00.646Z,8.3
2023-04-30T02:12:00.637Z,8.2
2023-04-30T02:13:00.614Z,8.2
2023-04-30T02:14:00.654Z,8.2
2023-04-30T02:15:01.936Z,8.2
2023-04-30T02:16:00.666Z,8.2
2023-04-30T02:17:00.610Z,8.2
2023-04-30T02:18:00.702Z,8.1
2023-04-30T02:19:01.110Z,8.1
2023-04-30T02:20:00.888Z,8.1
2023-04-30T02:21:00.615Z,8.1
2023-04-30T02:22:00.605Z,8.1
2023-04-30T02:23:00.623Z,8.0
2023-04-30T02:24:00.608Z,8.0
2023-04-30T02:25:01.043Z,8.0
2023-04-30T02:26:00.819Z,8.0
2023-04-30T02:27:00.610Z,7.9
2023-04-30T02:28:00.601Z,7.9
2023-04-30T02:29:00.629Z,7.9
2023-04-30T02:30:00.725Z,7.8
2023-04-30T02:31:00.643Z,7.8
2023-04-30T02:32:00.665Z,7.8
2023-04-30T02:33:00.756Z,7.8
2023-04-30T02:34:00.611Z,7.8
2023-04-30T02:35:00.696Z,7.8
2023-04-30T02:36:00.707Z,7.8
2023-04-30T02:37:00.642Z,7.7
2023-04-30T02:38:00.616Z,7.7
2023-04-30T02:39:00.724Z,7.7
2023-04-30T02:40:00.625Z,7.7
2023-04-30T02:41:00.613Z,7.7
2023-04-30T02:42:00.667Z,7.6
2023-04-30T02:43:00.618Z,7.6
2023-04-30T02:44:00.616Z,7.6
2023-04-30T02:45:00.716Z,7.6
2023-04-30T02:46:00.631Z,7.6
2023-04-30T02:47:00.987Z,7.6
2023-04-30T02:48:00.710Z,7.6
2023-04-30T02:49:00.623Z,7.5
2023-04-30T02:50:00.642Z,7.5
2023-04-30T02:51:00.622Z,7.5
2023-04-30T02:52:00.624Z,7.5
2023-04-30T02:53:00.633Z,7.4
2023-04-30T02:54:00.656Z,7.4
2023-04-30T02:55:00.599Z,7.4
2023-04-30T02:56:00.690Z,7.4
2023-04-30T02:57:00.655Z,7.4
2023-04-30T02:58:00.623Z,7.4
2023-04-30T02:59:00.941Z,7.3
2023-04-30T03:00:00.626Z,7.3
2023-04-30T03:01:00.629Z,7.3
2023-04-30T03:02:00.599Z,7.3
2023-04-30T03:03:00.748Z,7.3
2023-04-30T03:04:00.625Z,7.3
2023-04-30T03:05:02.247Z,7.3
2023-04-30T03:06:00.701Z,7.3
2023-04-30T03:07:00.628Z,7.3
2023-04-30T03:08:00.599Z,7.3
2023-04-30T03:09:00.818Z,7.3
2023-04-30T03:10:00.646Z,7.3
2023-04-30T03:11:00.647Z,7.3
2023-04-30T03:12:00.616Z,7.3
2023-04-30T03:13:00.617Z,7.3
2023-04-30T03:14:00.604Z,7.3
2023-04-30T03:15:00.723Z,7.3
2023-04-30T03:16:02.557Z,7.3
2023-04-30T03:17:00.618Z,7.2
2023-04-30T03:18:00.647Z,7.3
2023-04-30T03:19:00.610Z,7.3
2023-04-30T03:20:00.652Z,7.3
2023-04-30T03:21:00.682Z,7.3
2023-04-30T03:22:00.637Z,7.3
2023-04-30T03:23:00.622Z,7.3
2023-04-30T03:24:00.619Z,7.2
2023-04-30T03:25:00.610Z,7.2
2023-04-30T03:26:01.368Z,7.2
2023-04-30T03:27:00.626Z,7.2
2023-04-30T03:28:00.695Z,7.2
2023-04-30T03:29:00.641Z,7.2
2023-04-30T03:30:00.625Z,7.2
2023-04-30T03:31:00.842Z,7.2
2023-04-30T03:32:00.784Z,7.1
2023-04-30T03:33:00.696Z,7.1
2023-04-30T03:34:00.722Z,7.1
2023-04-30T03:35:00.667Z,7.1
2023-04-30T03:36:00.644Z,7.1
2023-04-30T03:37:00.647Z,7.1
2023-04-30T03:38:01.299Z,7.1
2023-04-30T03:39:01.329Z,7.1
2023-04-30T03:40:00.646Z,7.1
2023-04-30T03:41:00.605Z,7.0
2023-04-30T03:42:00.618Z,7.0
2023-04-30T03:43:00.656Z,7.0
2023-04-30T03:44:00.631Z,7.1
2023-04-30T03:45:00.670Z,7.1
2023-04-30T03:46:00.675Z,7.0
2023-04-30T03:47:00.641Z,7.1
2023-04-30T03:48:00.717Z,7.0
2023-04-30T03:49:00.606Z,7.0
2023-04-30T03:50:01.569Z,7.0
2023-04-30T03:51:00.731Z,7.0
2023-04-30T03:52:00.620Z,7.1
2023-04-30T03:53:00.691Z,7.1
2023-04-30T03:54:00.643Z,7.1
2023-04-30T03:55:00.638Z,7.1
2023-04-30T03:56:01.805Z,7.1
2023-04-30T03:57:01.185Z,7.1
2023-04-30T03:58:00.718Z,7.1
2023-04-30T03:59:00.876Z,7.2
2023-04-30T04:00:01.224Z,7.2
2023-04-30T04:01:00.655Z,7.2
2023-04-30T04:02:00.809Z,7.2
2023-04-30T04:03:00.687Z,7.3
2023-04-30T04:04:01.036Z,7.3
2023-04-30T04:05:01.197Z,7.3
2023-04-30T04:06:00.700Z,7.4
2023-04-30T04:07:00.666Z,7.4
2023-04-30T04:08:00.661Z,7.5
2023-04-30T04:09:00.704Z,7.5
2023-04-30T04:10:00.693Z,7.6
2023-04-30T04:11:00.683Z,7.6
2023-04-30T04:12:00.636Z,7.6
2023-04-30T04:13:00.671Z,7.7
2023-04-30T04:14:00.688Z,7.7
2023-04-30T04:15:00.616Z,7.8
2023-04-30T04:16:00.748Z,7.8
2023-04-30T04:17:00.694Z,7.9
2023-04-30T04:18:00.723Z,7.9
2023-04-30T04:19:00.623Z,7.9
2023-04-30T04:20:00.664Z,7.9
2023-04-30T04:21:00.612Z,7.9
2023-04-30T04:22:00.660Z,7.9
2023-04-30T04:23:00.650Z,7.8
2023-04-30T04:24:00.610Z,7.9
2023-04-30T04:25:00.751Z,8.1
2023-04-30T04:26:00.634Z,8.2
2023-04-30T04:27:00.659Z,8.2
2023-04-30T04:28:00.614Z,8.3
2023-04-30T04:29:00.828Z,8.4
2023-04-30T04:30:02.089Z,8.4
2023-04-30T04:31:00.632Z,8.5
2023-04-30T04:32:00.698Z,8.7
2023-04-30T04:33:00.877Z,8.9
2023-04-30T04:34:03.011Z,9.0
2023-04-30T04:35:00.646Z,9.2
2023-04-30T04:36:00.636Z,9.3
2023-04-30T04:37:00.638Z,9.3
2023-04-30T04:38:00.701Z,9.4
2023-04-30T04:39:00.812Z,9.6
2023-04-30T04:40:00.643Z,9.8
2023-04-30T04:41:00.609Z,9.9
2023-04-30T04:42:00.632Z,9.9
2023-04-30T04:43:00.602Z,9.9
2023-04-30T04:44:00.802Z,10.0
2023-04-30T04:45:00.608Z,10.2
2023-04-30T04:46:00.656Z,10.2
2023-04-30T04:47:00.621Z,10.4
2023-04-30T04:48:00.651Z,10.4
2023-04-30T04:49:00.650Z,10.5
2023-04-30T04:50:00.781Z,10.7
2023-04-30T04:51:00.627Z,10.8
2023-04-30T04:52:00.753Z,10.8
2023-04-30T04:53:00.610Z,11.0
2023-04-30T04:54:00.712Z,11.1
2023-04-30T04:55:00.765Z,11.2
2023-04-30T04:56:00.656Z,11.3
2023-04-30T04:57:00.601Z,11.4
2023-04-30T04:58:00.604Z,11.3
2023-04-30T04:59:00.638Z,11.4
2023-04-30T05:00:00.687Z,11.6
2023-04-30T05:01:00.941Z,11.7
2023-04-30T05:02:00.745Z,11.8
2023-04-30T05:03:00.691Z,12.0
2023-04-30T05:04:00.713Z,12.2
2023-04-30T05:05:00.611Z,12.1
2023-04-30T05:06:00.654Z,12.2
2023-04-30T05:07:00.769Z,12.4
2023-04-30T05:08:00.607Z,12.5
2023-04-30T05:09:00.707Z,12.5
2023-04-30T05:10:00.645Z,12.1
2023-04-30T05:11:00.758Z,12.1
2023-04-30T05:12:00.627Z,11.2
2023-04-30T05:13:00.606Z,11.5
2023-04-30T05:14:00.606Z,11.4
2023-04-30T05:15:00.617Z,11.5
2023-04-30T05:16:00.800Z,11.7
2023-04-30T05:17:00.628Z,12.0
2023-04-30T05:18:00.655Z,12.2
2023-04-30T05:19:00.633Z,12.3
2023-04-30T05:20:00.603Z,12.6
2023-04-30T05:21:00.603Z,12.8
2023-04-30T05:22:00.665Z,13.2
2023-04-30T05:23:00.602Z,13.4
2023-04-30T05:24:01.180Z,13.4
2023-04-30T05:25:00.624Z,13.4
2023-04-30T05:26:00.609Z,13.6
2023-04-30T05:27:00.600Z,13.6
2023-04-30T05:28:00.992Z,13.8
2023-04-30T05:29:00.620Z,14.0
2023-04-30T05:30:00.974Z,14.1
2023-04-30T05:31:00.683Z,13.9
2023-04-30T05:32:00.758Z,14.0
2023-04-30T05:33:00.698Z,14.2
2023-04-30T05:34:00.653Z,14.3
2023-04-30T05:35:00.649Z,14.2
2023-04-30T05:36:00.628Z,13.7
2023-04-30T05:37:00.622Z,12.9
2023-04-30T05:38:01.722Z,12.8
2023-04-30T05:39:00.733Z,12.5
2023-04-30T05:40:00.633Z,12.8
2023-04-30T05:41:00.626Z,13.2
2023-04-30T05:42:00.623Z,12.2
2023-04-30T05:43:00.631Z,12.1
2023-04-30T05:44:00.664Z,11.8
2023-04-30T05:45:01.279Z,11.5
2023-04-30T05:46:00.678Z,11.9
2023-04-30T05:47:00.601Z,12.1
2023-04-30T05:48:00.640Z,11.8
2023-04-30T05:49:00.704Z,12.1
2023-04-30T05:50:00.605Z,12.8
2023-04-30T05:51:00.649Z,13.4
2023-04-30T05:52:00.750Z,13.7
2023-04-30T05:53:00.626Z,13.8
2023-04-30T05:54:00.631Z,13.4
2023-04-30T05:55:00.645Z,12.8
2023-04-30T05:56:00.693Z,11.3
2023-04-30T05:57:00.646Z,11.2
2023-04-30T05:58:00.680Z,11.3
2023-04-30T05:59:00.612Z,11.2
2023-04-30T06:00:00.668Z,12.2
2023-04-30T06:01:00.612Z,12.6
2023-04-30T06:02:00.870Z,12.9
2023-04-30T06:03:00.735Z,11.9
2023-04-30T06:04:00.636Z,12.4
2023-04-30T06:05:00.891Z,13.1
2023-04-30T06:06:00.733Z,12.7
2023-04-30T06:07:00.642Z,12.7
2023-04-30T06:08:00.630Z,12.1
2023-04-30T06:09:00.612Z,12.6
2023-04-30T06:10:02.196Z,12.8
2023-04-30T06:11:00.916Z,13.0
2023-04-30T06:12:00.757Z,13.6
2023-04-30T06:13:00.667Z,14.2
2023-04-30T06:14:00.745Z,13.8
2023-04-30T06:15:00.889Z,14.2
2023-04-30T06:16:00.719Z,14.3
2023-04-30T06:17:01.020Z,14.3
2023-04-30T06:18:00.733Z,14.3
2023-04-30T06:19:00.729Z,13.9
2023-04-30T06:20:00.622Z,13.7
2023-04-30T06:21:00.644Z,14.1
2023-04-30T06:22:00.634Z,13.9
2023-04-30T06:23:00.612Z,13.8
2023-04-30T06:24:00.673Z,14.4
2023-04-30T06:25:00.652Z,14.0
2023-04-30T06:26:00.625Z,13.8
2023-04-30T06:27:00.613Z,12.9
2023-04-30T06:28:00.635Z,11.5
2023-04-30T06:29:00.699Z,11.1
2023-04-30T06:30:00.617Z,11.1
2023-04-30T06:31:00.972Z,11.5
2023-04-30T06:32:00.758Z,11.8
2023-04-30T06:33:00.646Z,12.5
2023-04-30T06:34:00.633Z,13.2
2023-04-30T06:35:00.611Z,12.1
2023-04-30T06:36:00.605Z,11.7
2023-04-30T06:37:00.643Z,11.9
2023-04-30T06:38:00.608Z,11.6
2023-04-30T06:39:00.806Z,11.2
2023-04-30T06:40:00.808Z,11.8
2023-04-30T06:41:00.825Z,12.4
2023-04-30T06:42:00.618Z,12.3
2023-04-30T06:43:00.662Z,12.6
2023-04-30T06:44:00.617Z,12.8
2023-04-30T06:45:01.571Z,13.5
2023-04-30T06:46:00.651Z,14.2
2023-04-30T06:47:00.697Z,14.8
2023-04-30T06:48:00.710Z,14.6
2023-04-30T06:49:00.625Z,14.5
2023-04-30T06:50:01.089Z,14.6
2023-04-30T06:51:00.615Z,13.6
2023-04-30T06:52:00.653Z,12.9
2023-04-30T06:53:00.622Z,12.1
2023-04-30T06:54:00.631Z,12.4
2023-04-30T06:55:01.102Z,12.7
2023-04-30T06:56:00.843Z,13.6
2023-04-30T06:57:00.608Z,14.4
2023-04-30T06:58:00.631Z,15.1
2023-04-30T06:59:00.631Z,14.7
2023-04-30T07:00:00.657Z,13.5
2023-04-30T07:01:00.815Z,13.4
2023-04-30T07:02:00.758Z,13.6
2023-04-30T07:03:00.715Z,13.9
2023-04-30T07:04:00.876Z,14.0
2023-04-30T07:05:00.644Z,12.9
2023-04-30T07:06:00.951Z,11.8
2023-04-30T07:07:00.769Z,11.4
2023-04-30T07:08:01.930Z,11.8
2023-04-30T07:09:01.078Z,12.9
2023-04-30T07:10:00.630Z,12.8
2023-04-30T07:11:00.602Z,13.5
2023-04-30T07:12:00.917Z,13.4
2023-04-30T07:13:00.634Z,13.9
2023-04-30T07:14:00.612Z,14.4
2023-04-30T07:15:00.761Z,13.9
2023-04-30T07:16:00.660Z,13.6
2023-04-30T07:17:00.599Z,13.4
2023-04-30T07:18:00.687Z,14.1
2023-04-30T07:19:00.683Z,14.9
2023-04-30T07:20:00.604Z,15.1
2023-04-30T07:21:00.608Z,15.4
2023-04-30T07:22:00.712Z,15.8
2023-04-30T07:23:00.684Z,14.6
2023-04-30T07:24:00.619Z,14.8
2023-04-30T07:25:00.682Z,15.7
2023-04-30T07:26:00.642Z,16.1
2023-04-30T07:27:00.635Z,15.6
2023-04-30T07:28:00.592Z,16.0
2023-04-30T07:29:01.216Z,15.7
2023-04-30T07:30:00.638Z,13.9
2023-04-30T07:31:00.652Z,12.9
2023-04-30T07:32:00.633Z,13.8
2023-04-30T07:33:00.657Z,13.5
2023-04-30T07:34:00.679Z,13.7
2023-04-30T07:35:00.719Z,12.4
2023-04-30T07:36:00.602Z,12.0
2023-04-30T07:37:00.600Z,12.5
2023-04-30T07:38:00.849Z,13.0
2023-04-30T07:39:00.628Z,13.8
2023-04-30T07:40:00.822Z,13.8
2023-04-30T07:41:00.605Z,13.4
2023-04-30T07:42:00.600Z,13.9
2023-04-30T07:43:00.669Z,13.5
2023-04-30T07:44:00.616Z,13.1
2023-04-30T07:45:00.670Z,12.8
2023-04-30T07:46:00.915Z,11.3
2023-04-30T07:47:00.630Z,11.1
2023-04-30T07:48:00.659Z,11.4
2023-04-30T07:49:00.716Z,11.3
2023-04-30T07:50:00.801Z,10.8
2023-04-30T07:51:00.611Z,10.8
2023-04-30T07:52:00.633Z,10.6
2023-04-30T07:53:00.793Z,10.5
2023-04-30T07:54:00.621Z,11.2
2023-04-30T07:55:00.673Z,12.1
2023-04-30T07:56:00.629Z,12.9
2023-04-30T07:57:00.636Z,13.5
2023-04-30T07:58:00.638Z,13.6
2023-04-30T07:59:00.618Z,13.3
2023-04-30T08:00:00.738Z,13.1
2023-04-30T08:01:00.602Z,12.6
2023-04-30T08:02:00.837Z,12.2
2023-04-30T08:03:00.960Z,12.9
2023-04-30T08:04:00.869Z,13.8
2023-04-30T08:05:00.654Z,14.7
2023-04-30T08:06:00.773Z,14.3
2023-04-30T08:07:00.708Z,13.9
2023-04-30T08:08:00.723Z,13.8
2023-04-30T08:09:00.686Z,13.4
2023-04-30T08:10:00.687Z,13.3
2023-04-30T08:11:00.602Z,12.5
2023-04-30T08:12:00.626Z,12.6
2023-04-30T08:13:00.611Z,13.1
2023-04-30T08:14:00.630Z,12.6
2023-04-30T08:15:02.514Z,13.1
2023-04-30T08:16:00.599Z,13.1
2023-04-30T08:17:00.835Z,13.4
2023-04-30T08:18:01.674Z,13.7
2023-04-30T08:19:00.629Z,13.9
2023-04-30T08:20:03.074Z,13.6
2023-04-30T08:21:00.626Z,13.1
2023-04-30T08:22:00.651Z,13.4
2023-04-30T08:23:00.633Z,13.0
2023-04-30T08:24:00.788Z,12.6
2023-04-30T08:25:00.633Z,12.8
2023-04-30T08:26:00.644Z,13.1
2023-04-30T08:27:00.609Z,12.2
2023-04-30T08:28:00.604Z,11.8
2023-04-30T08:29:00.622Z,12.3
2023-04-30T08:30:00.649Z,12.9
2023-04-30T08:31:00.621Z,12.4
2023-04-30T08:32:02.231Z,12.2
2023-04-30T08:33:00.731Z,13.0
2023-04-30T08:34:00.623Z,13.7
2023-04-30T08:35:02.268Z,13.1
2023-04-30T08:36:00.637Z,13.4
2023-04-30T08:37:00.630Z,14.4
2023-04-30T08:38:00.660Z,15.1
2023-04-30T08:39:00.607Z,15.6
2023-04-30T08:40:00.680Z,16.1
2023-04-30T08:41:09.963Z,16.4
2023-04-30T08:42:01.899Z,16.7
2023-04-30T08:43:06.353Z,16.6
2023-04-30T08:44:01.397Z,16.5
2023-04-30T08:45:02.819Z,15.4
2023-04-30T08:46:00.847Z,14.0
2023-04-30T08:47:02.258Z,13.5
2023-04-30T08:48:01.990Z,13.0
2023-04-30T08:49:00.711Z,13.2
2023-04-30T08:50:00.683Z,13.9
2023-04-30T08:51:01.314Z,13.9
2023-04-30T08:52:00.624Z,14.2
2023-04-30T08:53:01.421Z,14.3
2023-04-30T08:54:00.658Z,14.8
2023-04-30T08:55:01.129Z,15.2
2023-04-30T08:56:01.915Z,14.8
2023-04-30T08:57:00.631Z,14.4
2023-04-30T08:58:00.630Z,14.2
2023-04-30T08:59:00.632Z,13.9
2023-04-30T09:00:00.625Z,14.0
2023-04-30T09:01:01.403Z,13.3
2023-04-30T09:02:00.754Z,12.6
2023-04-30T09:03:00.806Z,13.2
2023-04-30T09:04:03.226Z,14.0
2023-04-30T09:05:01.233Z,14.1
2023-04-30T09:06:00.664Z,12.8
2023-04-30T09:07:02.284Z,12.1
2023-04-30T09:08:03.935Z,12.2
2023-04-30T09:09:09.964Z,12.6
2023-04-30T09:10:00.650Z,12.6
2023-04-30T09:11:00.607Z,12.8
2023-04-30T09:12:17.802Z,13.0
2023-04-30T09:13:03.413Z,13.1
2023-04-30T09:14:00.871Z,13.3
2023-04-30T09:15:02.511Z,12.8
2023-04-30T09:16:00.659Z,12.6
2023-04-30T09:17:00.631Z,12.7
2023-04-30T09:18:12.701Z,13.0
2023-04-30T09:19:00.674Z,13.1
2023-04-30T09:20:11.293Z,12.7
2023-04-30T09:21:01.058Z,13.1
2023-04-30T09:22:17.517Z,13.2
2023-04-30T09:23:06.562Z,12.9
2023-04-30T09:24:03.357Z,12.8
2023-04-30T09:25:00.641Z,13.2
2023-04-30T09:26:00.637Z,13.1
2023-04-30T09:27:18.626Z,12.5
2023-04-30T09:28:06.197Z,12.2
2023-04-30T09:29:01.264Z,12.0
2023-04-30T09:30:00.799Z,12.4
2023-04-30T09:31:00.647Z,13.1
2023-04-30T09:32:07.954Z,13.8
2023-04-30T09:33:00.706Z,14.2
2023-04-30T09:34:00.980Z,14.6
2023-04-30T09:35:00.643Z,14.6
2023-04-30T09:36:08.000Z,14.3
2023-04-30T09:37:00.687Z,14.5
2023-04-30T09:38:01.714Z,14.8
2023-04-30T09:39:11.419Z,14.8
2023-04-30T09:40:01.306Z,14.6
2023-04-30T09:41:01.035Z,14.1
2023-04-30T09:42:09.166Z,14.0
2023-04-30T09:43:00.745Z,13.7
2023-04-30T09:44:00.940Z,13.8
2023-04-30T09:45:00.691Z,13.6
2023-04-30T09:46:02.546Z,13.5
2023-04-30T09:47:00.689Z,13.6
2023-04-30T09:48:15.837Z,13.1
2023-04-30T09:49:02.799Z,13.1
2023-04-30T09:50:00.801Z,13.3
2023-04-30T09:51:02.320Z,13.1
2023-04-30T09:52:00.662Z,13.0
2023-04-30T09:53:04.606Z,13.0
2023-04-30T09:54:02.161Z,13.0
2023-04-30T09:55:00.633Z,13.1
2023-04-30T09:56:01.881Z,13.2
2023-04-30T09:57:01.939Z,13.4
2023-04-30T09:58:04.413Z,13.4
2023-04-30T09:59:03.713Z,13.5
2023-04-30T10:00:01.300Z,12.9
2023-04-30T10:01:03.952Z,12.5
2023-04-30T10:02:02.366Z,12.4
2023-04-30T10:03:05.473Z,12.6
2023-04-30T10:04:00.862Z,12.6
2023-04-30T10:05:01.315Z,12.6
2023-04-30T10:06:00.732Z,12.5
2023-04-30T10:07:04.698Z,12.5
2023-04-30T10:08:00.633Z,12.4
2023-04-30T10:09:02.105Z,12.0
2023-04-30T10:10:09.725Z,11.8
2023-04-30T10:11:04.213Z,11.4
2023-04-30T10:12:02.090Z,11.5
2023-04-30T10:13:05.858Z,11.7
2023-04-30T10:14:05.432Z,11.8
2023-04-30T10:15:08.924Z,11.8
2023-04-30T10:16:07.394Z,12.0
2023-04-30T10:17:10.194Z,12.2
2023-04-30T10:18:04.570Z,12.4
2023-04-30T10:19:08.852Z,11.9
2023-04-30T10:20:02.990Z,11.7
2023-04-30T10:21:02.730Z,11.4
2023-04-30T10:22:01.214Z,11.5
2023-04-30T10:23:00.822Z,11.4
2023-04-30T10:24:01.694Z,11.4
2023-04-30T10:25:01.690Z,11.4
2023-04-30T10:26:01.221Z,11.5
2023-04-30T10:27:00.672Z,11.6
2023-04-30T10:28:02.598Z,11.8
2023-04-30T10:29:01.408Z,12.0
2023-04-30T10:30:01.582Z,12.1
2023-04-30T10:31:00.878Z,12.4
2023-04-30T10:32:00.706Z,12.6
2023-04-30T10:33:16.378Z,12.8
2023-04-30T10:34:02.641Z,12.8
2023-04-30T10:35:13.584Z,12.5
2023-04-30T10:36:04.814Z,12.2
2023-04-30T10:37:09.218Z,12.1
2023-04-30T10:38:11.857Z,12.4
2023-04-30T10:39:01.313Z,12.4
2023-04-30T10:40:00.920Z,12.1
2023-04-30T10:41:01.428Z,11.7
2023-04-30T10:42:03.049Z,11.8
2023-04-30T10:43:00.701Z,11.9
2023-04-30T10:44:02.094Z,12.1
2023-04-30T10:45:01.470Z,12.3
2023-04-30T10:46:01.114Z,12.5
2023-04-30T10:47:01.872Z,12.6
2023-04-30T10:48:01.416Z,12.8
2023-04-30T10:49:00.772Z,12.9
2023-04-30T10:50:03.199Z,12.9
2023-04-30T10:51:01.137Z,12.9
2023-04-30T10:52:02.394Z,12.9
2023-04-30T10:53:02.541Z,12.7
2023-04-30T10:54:01.482Z,12.4
2023-04-30T10:55:04.212Z,12.2
2023-04-30T10:56:03.035Z,12.1
2023-04-30T10:57:09.196Z,12.1
2023-04-30T10:58:00.657Z,12.1
2023-04-30T10:59:01.076Z,11.9
2023-04-30T11:00:08.130Z,12.0
2023-04-30T11:01:01.801Z,12.2
2023-04-30T11:02:00.938Z,12.3
2023-04-30T11:03:02.986Z,12.2
2023-04-30T11:04:05.754Z,12.2
2023-04-30T11:05:07.950Z,12.2
2023-04-30T11:06:07.319Z,12.3
2023-04-30T11:07:07.414Z,12.3
2023-04-30T11:08:00.763Z,12.1
2023-04-30T11:09:03.054Z,12.0
2023-04-30T11:10:01.248Z,11.7
2023-04-30T11:11:00.719Z,11.6
2023-04-30T11:12:02.653Z,11.8
2023-04-30T11:13:05.439Z,12.0
2023-04-30T11:14:00.929Z,12.1
2023-04-30T11:15:12.898Z,12.2
2023-04-30T11:16:02.437Z,12.1
2023-04-30T11:17:00.685Z,11.9
2023-04-30T11:18:00.803Z,11.9
2023-04-30T11:19:12.033Z,12.0
2023-04-30T11:20:00.932Z,12.1
2023-04-30T11:21:01.081Z,12.2
2023-04-30T11:22:03.870Z,12.3
2023-04-30T11:23:11.644Z,12.2
2023-04-30T11:24:02.684Z,12.4
2023-04-30T11:25:04.727Z,12.4
2023-04-30T11:26:00.630Z,12.4
2023-04-30T11:27:02.863Z,12.2
2023-04-30T11:28:01.000Z,12.2
2023-04-30T11:29:01.613Z,12.0
2023-04-30T11:30:02.203Z,11.9
2023-04-30T11:31:00.845Z,12.0
2023-04-30T11:32:00.731Z,12.1
2023-04-30T11:33:01.214Z,12.1
2023-04-30T11:34:01.691Z,12.1
2023-04-30T11:35:02.386Z,12.1
2023-04-30T11:36:01.223Z,12.1
2023-04-30T11:37:02.139Z,12.0
2023-04-30T11:38:02.765Z,12.1
2023-04-30T11:39:02.661Z,12.2
2023-04-30T11:40:02.978Z,12.1
2023-04-30T11:41:02.851Z,12.2
2023-04-30T11:42:01.244Z,12.2
2023-04-30T11:43:00.614Z,12.3
2023-04-30T11:44:00.665Z,12.4
2023-04-30T11:45:02.205Z,12.5
2023-04-30T11:46:11.882Z,12.5
2023-04-30T11:47:00.860Z,12.5
2023-04-30T11:48:00.724Z,12.3
2023-04-30T11:49:00.889Z,12.2
2023-04-30T11:50:00.620Z,12.4
2023-04-30T11:51:03.264Z,12.4
2023-04-30T11:52:00.606Z,12.4
2023-04-30T11:53:00.640Z,12.4
2023-04-30T11:54:00.679Z,12.4
2023-04-30T11:55:03.987Z,12.3
2023-04-30T11:56:02.315Z,12.3
2023-04-30T11:57:00.671Z,12.3
2023-04-30T11:58:00.615Z,12.3
2023-04-30T11:59:00.625Z,12.2
2023-04-30T12:00:11.762Z,12.2
2023-04-30T12:01:00.813Z,12.2
2023-04-30T12:02:00.697Z,12.4
2023-04-30T12:03:01.110Z,12.3
2023-04-30T12:04:00.729Z,12.2
2023-04-30T12:05:01.306Z,12.1
2023-04-30T12:06:00.689Z,12.2
2023-04-30T12:07:00.633Z,12.3
2023-04-30T12:08:03.844Z,12.4
2023-04-30T12:09:02.970Z,12.3
2023-04-30T12:10:00.633Z,12.1
2023-04-30T12:11:00.623Z,12.1
2023-04-30T12:12:00.618Z,12.1
2023-04-30T12:13:01.263Z,12.2
2023-04-30T12:14:02.748Z,12.2
2023-04-30T12:15:10.309Z,12.3
2023-04-30T12:16:01.133Z,12.4
2023-04-30T12:17:00.639Z,12.4
2023-04-30T12:18:11.718Z,12.5
2023-04-30T12:19:00.660Z,12.6
2023-04-30T12:20:00.840Z,12.5
2023-04-30T12:21:00.745Z,12.6
2023-04-30T12:22:00.683Z,12.6
2023-04-30T12:23:00.790Z,12.6
2023-04-30T12:24:02.871Z,12.7
2023-04-30T12:25:05.801Z,12.8
2023-04-30T12:26:00.620Z,12.8
2023-04-30T12:27:00.669Z,12.8
2023-04-30T12:28:00.668Z,12.8
2023-04-30T12:29:02.593Z,12.9
2023-04-30T12:30:04.175Z,12.9
2023-04-30T12:31:00.845Z,12.7
2023-04-30T12:32:00.798Z,12.6
2023-04-30T12:33:00.832Z,12.6
2023-04-30T12:34:10.837Z,12.7
2023-04-30T12:35:00.645Z,12.8
2023-04-30T12:36:00.645Z,12.8
2023-04-30T12:37:00.857Z,12.8
2023-04-30T12:38:04.181Z,12.8
2023-04-30T12:39:01.466Z,12.8
2023-04-30T12:40:01.248Z,12.8
2023-04-30T12:41:03.428Z,12.8
2023-04-30T12:42:01.812Z,12.8
2023-04-30T12:43:03.089Z,12.7
2023-04-30T12:44:14.537Z,12.7
2023-04-30T12:45:00.990Z,12.7
2023-04-30T12:46:00.784Z,12.7
2023-04-30T12:47:07.044Z,12.7
2023-04-30T12:48:00.742Z,12.7
2023-04-30T12:49:00.645Z,12.8
2023-04-30T12:50:00.722Z,12.8
2023-04-30T12:51:01.352Z,12.8
2023-04-30T12:52:09.424Z,12.8
2023-04-30T12:53:01.824Z,12.9
2023-04-30T12:54:01.078Z,12.9
2023-04-30T12:55:18.434Z,12.9
2023-04-30T12:56:12.794Z,13.0
2023-04-30T12:57:02.457Z,13.0
2023-04-30T12:58:02.390Z,12.9
2023-04-30T12:59:00.622Z,12.9
2023-04-30T13:00:00.615Z,12.8
2023-04-30T13:01:00.669Z,12.8
2023-04-30T13:02:08.880Z,12.8
2023-04-30T13:03:00.726Z,12.8
2023-04-30T13:04:00.733Z,12.8
2023-04-30T13:05:00.624Z,12.8
2023-04-30T13:06:00.702Z,12.8
2023-04-30T13:07:00.923Z,12.8
2023-04-30T13:08:01.132Z,12.8
2023-04-30T13:09:00.610Z,12.9
2023-04-30T13:10:00.636Z,12.8
2023-04-30T13:11:00.752Z,12.8
2023-04-30T13:12:01.347Z,12.9
2023-04-30T13:13:00.608Z,12.9
2023-04-30T13:14:00.754Z,12.9
2023-04-30T13:15:00.616Z,12.8
2023-04-30T13:16:00.720Z,12.9
2023-04-30T13:17:01.209Z,12.8
2023-04-30T13:18:00.720Z,12.7
2023-04-30T13:19:00.601Z,12.7
2023-04-30T13:20:00.631Z,12.8
2023-04-30T13:21:00.624Z,12.8
2023-04-30T13:22:00.656Z,12.8
2023-04-30T13:23:00.620Z,12.6
2023-04-30T13:24:00.724Z,12.6
2023-04-30T13:25:00.644Z,12.6
2023-04-30T13:26:00.616Z,12.7
2023-04-30T13:27:00.649Z,12.7